Time;durP1;ratioP1;P1;durP2;ratioP2;P2;SDS_P1;SDS_P2;PMS_P1;PMS_P2;Temp;Humidity;BMP_temperature;BMP_pressure;BME280_temperature;BME280_humidity;BME280_pressure;Samples;Min_cycle;Max_cycle;Signal;HPM_P1;HPM_P2
2021/09/23 00:00:15;;;;;;;16.60;11.10;;;14.00;99.90;;;;;;5000029;28;20198;-51
2021/09/23 00:05:17;;;;;;;14.00;11.60;;;13.70;99.90;;;;;;5003457;28;20835;-51
2021/09/23 00:07:45;;;;;;;17.20;12.80;;;13.60;99.90;;;;;;5000127;28;20304;-51
2021/09/23 00:10:16;;;;;;;16.17;11.67;;;13.70;1.00;;;;;;5000989;28;20212;-51
2021/09/23 00:12:43;;;;;;;15.77;11.50;;;13.70;1.00;;;;;;5007515;28;20653;-51
2021/09/23 00:15:13;;;;;;;18.57;11.83;;;13.70;99.90;;;;;;5002720;28;20279;-51
2021/09/23 00:17:41;;;;;;;17.03;12.93;;;13.70;99.90;;;;;;5004525;28;20288;-51
2021/09/23 00:20:08;;;;;;;16.17;11.90;;;13.80;1.00;;;;;;5002415;28;20356;-51
2021/09/23 00:22:35;;;;;;;17.23;12.20;;;13.70;74.50;;;;;;4999811;28;20247;-51
2021/09/23 00:25:02;;;;;;;16.07;12.63;;;13.70;1.00;;;;;;4998776;28;20260;-51
2021/09/23 00:27:29;;;;;;;19.53;12.90;;;13.70;1.00;;;;;;5002234;28;20294;-51
2021/09/23 00:29:55;;;;;;;16.07;12.30;;;13.60;99.90;;;;;;5018708;28;20497;-51
2021/09/23 00:32:22;;;;;;;16.33;12.07;;;13.60;99.90;;;;;;5001864;28;20253;-51
2021/09/23 00:34:49;;;;;;;19.73;12.57;;;13.60;1.00;;;;;;5004362;28;20678;-51
2021/09/23 00:37:16;;;;;;;17.13;12.47;;;13.60;32.30;;;;;;5002238;28;20681;-52
2021/09/23 00:39:43;;;;;;;19.67;11.80;;;13.60;1.00;;;;;;5001817;28;20214;-51
2021/09/23 00:42:10;;;;;;;19.20;13.50;;;13.60;99.90;;;;;;5005508;28;20499;-51
2021/09/23 00:44:38;;;;;;;17.57;12.57;;;13.40;1.00;;;;;;5002477;28;20492;-51
2021/09/23 00:47:05;;;;;;;22.23;14.00;;;13.50;1.00;;;;;;5003858;28;20201;-51
2021/09/23 00:49:32;;;;;;;19.63;13.37;;;13.50;99.90;;;;;;5002296;28;20197;-51
2021/09/23 00:51:59;;;;;;;20.00;14.53;;;13.50;1.00;;;;;;5002716;28;20201;-51
2021/09/23 00:54:26;;;;;;;18.87;13.03;;;13.40;99.90;;;;;;4999218;28;20261;-51
2021/09/23 00:56:52;;;;;;;18.47;12.97;;;13.40;1.00;;;;;;5015159;28;20341;-51
2021/09/23 00:59:19;;;;;;;17.43;12.80;;;13.50;1.00;;;;;;5002055;28;20595;-51
2021/09/23 01:01:47;;;;;;;17.70;12.57;;;13.40;1.00;;;;;;5000423;28;20248;-51
2021/09/23 01:04:14;;;;;;;15.73;12.50;;;13.40;99.90;;;;;;5000051;28;20618;-51
2021/09/23 01:06:41;;;;;;;17.07;12.80;;;13.40;99.90;;;;;;5003671;28;20205;-51
2021/09/23 01:09:08;;;;;;;19.83;12.73;;;13.10;1.00;;;;;;5000460;28;20308;-51
2021/09/23 01:11:35;;;;;;;23.43;13.90;;;12.90;1.00;;;;;;5002164;28;20240;-51
2021/09/23 01:14:02;;;;;;;19.30;13.30;;;12.70;58.30;;;;;;5013534;28;20625;-51
2021/09/23 01:16:29;;;;;;;24.00;14.40;;;12.80;99.90;;;;;;5004737;28;20296;-51
2021/09/23 01:18:56;;;;;;;20.67;12.80;;;12.90;35.20;;;;;;4999004;28;20217;-51
2021/09/23 01:21:22;;;;;;;19.70;13.10;;;13.00;1.00;;;;;;4998692;28;20633;-51
2021/09/23 01:23:49;;;;;;;22.20;14.10;;;13.10;1.00;;;;;;4999213;28;20300;-51
2021/09/23 01:26:26;;;;;;;17.23;12.77;;;13.10;1.00;;;;;;5010708;28;20213;-51
2021/09/23 01:28:54;;;;;;;18.80;13.27;;;13.10;1.00;;;;;;5003436;28;20247;-51
2021/09/23 01:31:22;;;;;;;22.47;13.93;;;13.10;1.00;;;;;;4999567;28;20438;-51
2021/09/23 01:33:50;;;;;;;20.57;13.47;;;13.20;1.00;;;;;;5002452;28;20316;-51
2021/09/23 01:36:17;;;;;;;21.90;14.27;;;13.20;1.00;;;;;;5004845;28;20291;-51
2021/09/23 01:38:44;;;;;;;18.63;13.43;;;13.10;1.00;;;;;;5006380;28;20221;-51
2021/09/23 01:41:11;;;;;;;20.33;13.87;;;13.10;1.00;;;;;;5000532;28;20209;-51
2021/09/23 01:43:38;;;;;;;18.60;13.63;;;13.10;1.00;;;;;;5006381;28;20200;-51
2021/09/23 01:46:05;;;;;;;20.40;13.43;;;13.10;99.90;;;;;;5005919;28;21782;-51
2021/09/23 01:48:32;;;;;;;18.77;13.53;;;13.10;1.00;;;;;;5009683;28;20193;-51
2021/09/23 01:50:59;;;;;;;18.50;13.80;;;12.80;1.00;;;;;;5004301;28;20292;-51
2021/09/23 01:53:26;;;;;;;20.20;14.83;;;12.50;1.00;;;;;;5005997;28;20657;-51
2021/09/23 01:55:53;;;;;;;23.67;14.63;;;12.30;99.90;;;;;;5002909;28;20680;-51
2021/09/23 01:58:19;;;;;;;19.10;14.67;;;12.30;99.90;;;;;;5003571;28;20201;-51
2021/09/23 02:00:46;;;;;;;18.93;13.73;;;12.30;99.90;;;;;;4997681;28;20203;-51
2021/09/23 02:03:13;;;;;;;19.97;14.10;;;12.40;99.90;;;;;;5002241;28;20640;-51
2021/09/23 02:05:40;;;;;;;20.63;13.73;;;12.60;99.90;;;;;;5000082;28;20240;-51
2021/09/23 02:08:07;;;;;;;21.17;14.70;;;12.70;99.90;;;;;;5002466;28;20618;-51
2021/09/23 02:10:35;;;;;;;22.50;14.53;;;12.80;1.00;;;;;;5000677;28;20245;-51
2021/09/23 02:13:01;;;;;;;23.70;14.90;;;12.90;1.00;;;;;;5001968;28;20300;-51
2021/09/23 02:15:28;;;;;;;18.53;12.80;;;12.80;1.00;;;;;;5002271;28;20205;-51
2021/09/23 02:17:55;;;;;;;18.97;13.60;;;12.80;1.00;;;;;;5001848;28;20225;-51
2021/09/23 02:20:22;;;;;;;21.17;13.80;;;12.80;1.00;;;;;;5003248;28;20232;-51
2021/09/23 02:22:49;;;;;;;27.67;14.40;;;12.70;1.00;;;;;;5005419;28;20200;-51
2021/09/23 02:25:15;;;;;;;22.77;15.43;;;12.50;91.50;;;;;;5005156;28;20765;-51
2021/09/23 02:27:42;;;;;;;21.97;14.73;;;12.60;99.90;;;;;;5003785;28;20292;-51
2021/09/23 02:30:10;;;;;;;22.53;14.60;;;12.60;99.90;;;;;;5001838;28;20374;-51
2021/09/23 02:32:37;;;;;;;20.87;14.37;;;12.60;92.10;;;;;;5002543;28;20697;-51
2021/09/23 02:35:05;;;;;;;20.47;14.63;;;12.70;99.90;;;;;;5005275;28;20303;-51
2021/09/23 02:37:32;;;;;;;19.97;14.03;;;12.70;19.60;;;;;;5006108;28;20351;-51
2021/09/23 02:40:00;;;;;;;21.83;14.83;;;12.60;1.00;;;;;;5005872;28;20691;-51
2021/09/23 02:42:26;;;;;;;23.57;14.27;;;12.50;75.80;;;;;;5005700;28;20213;-51
2021/09/23 02:44:53;;;;;;;24.03;14.93;;;12.50;99.90;;;;;;5001988;28;20236;-51
2021/09/23 02:47:22;;;;;;;24.70;15.67;;;12.20;99.90;;;;;;5003150;28;20271;-51
2021/09/23 02:49:50;;;;;;;23.37;15.40;;;12.20;99.90;;;;;;5002605;28;20277;-51
2021/09/23 02:52:17;;;;;;;20.83;14.70;;;12.30;99.90;;;;;;5001574;28;20259;-51
2021/09/23 02:54:45;;;;;;;24.00;14.40;;;12.10;99.90;;;;;;4994924;28;20205;-50
2021/09/23 02:57:13;;;;;;;20.63;15.30;;;12.20;99.90;;;;;;5004664;28;20235;-51
2021/09/23 02:59:40;;;;;;;22.83;14.13;;;12.30;99.90;;;;;;5000625;28;20333;-51
2021/09/23 03:02:06;;;;;;;22.40;15.03;;;12.30;99.90;;;;;;4998315;28;20208;-51
2021/09/23 03:04:34;;;;;;;25.00;14.97;;;12.20;99.90;;;;;;4998631;28;20252;-51
2021/09/23 03:07:00;;;;;;;25.60;15.23;;;12.00;99.90;;;;;;5015020;28;20269;-51
2021/09/23 03:09:27;;;;;;;22.27;14.50;;;12.00;99.90;;;;;;5010072;28;20209;-51
2021/09/23 03:11:54;;;;;;;22.60;14.80;;;12.00;99.90;;;;;;5005703;28;20208;-51
2021/09/23 03:14:21;;;;;;;23.50;15.87;;;12.30;99.90;;;;;;5006316;28;20221;-51
2021/09/23 03:16:48;;;;;;;22.50;15.97;;;12.10;99.90;;;;;;5005947;28;20224;-51
2021/09/23 03:19:15;;;;;;;23.97;15.83;;;12.00;99.90;;;;;;5005597;28;20250;-51
2021/09/23 03:21:42;;;;;;;22.17;15.40;;;11.90;99.90;;;;;;5003434;28;20291;-51
2021/09/23 03:24:10;;;;;;;23.20;15.70;;;11.90;99.90;;;;;;5003764;28;20234;-51
2021/09/23 03:26:38;;;;;;;23.73;16.03;;;11.90;99.90;;;;;;5001832;28;20217;-51
2021/09/23 03:29:09;;;;;;;23.80;14.83;;;11.90;99.90;;;;;;5004561;28;20203;-51
2021/09/23 03:31:37;;;;;;;19.47;14.50;;;11.90;99.90;;;;;;5003773;28;20303;-51
2021/09/23 03:34:04;;;;;;;23.47;15.03;;;11.90;99.90;;;;;;5002915;28;20215;-51
2021/09/23 03:36:31;;;;;;;23.90;15.60;;;11.90;99.90;;;;;;5006067;28;20264;-51
2021/09/23 03:38:59;;;;;;;24.73;15.27;;;11.90;99.90;;;;;;5006229;28;20254;-51
2021/09/23 03:41:26;;;;;;;22.83;15.43;;;11.80;99.90;;;;;;5004329;28;20282;-51
2021/09/23 03:43:53;;;;;;;22.57;15.93;;;11.70;99.90;;;;;;5007898;28;20351;-51
2021/09/23 03:46:19;;;;;;;22.00;14.97;;;11.80;99.90;;;;;;5004519;28;20233;-51
2021/09/23 03:48:46;;;;;;;25.80;15.57;;;11.70;99.90;;;;;;5005989;28;20254;-51
2021/09/23 03:51:18;;;;;;;25.80;15.03;;;11.80;99.90;;;;;;5005864;28;20689;-51
2021/09/23 03:53:44;;;;;;;23.40;15.60;;;11.90;99.90;;;;;;5006674;28;20287;-51
2021/09/23 03:56:14;;;;;;;24.67;16.77;;;11.90;99.90;;;;;;5012445;28;20311;-51
2021/09/23 03:58:42;;;;;;;24.47;15.50;;;11.90;99.90;;;;;;5003884;28;20329;-51
2021/09/23 04:01:09;;;;;;;22.63;14.43;;;12.00;99.90;;;;;;5006432;28;20756;-51
2021/09/23 04:03:37;;;;;;;23.83;16.00;;;12.00;99.90;;;;;;5006457;28;20708;-53
2021/09/23 04:06:05;;;;;;;26.10;16.07;;;12.10;99.90;;;;;;5005197;28;20218;-51
2021/09/23 04:08:32;;;;;;;23.93;15.67;;;12.10;99.90;;;;;;5005807;28;20201;-51
2021/09/23 04:10:59;;;;;;;25.00;16.10;;;12.20;99.90;;;;;;5003128;28;20631;-51
2021/09/23 04:13:25;;;;;;;24.60;15.83;;;12.00;99.90;;;;;;5003520;28;21365;-51
2021/09/23 04:15:52;;;;;;;29.20;16.53;;;11.70;99.90;;;;;;5002069;28;20232;-51
2021/09/23 04:18:19;;;;;;;22.67;15.03;;;11.60;99.90;;;;;;5003827;28;20297;-51
2021/09/23 04:20:47;;;;;;;24.03;16.73;;;11.70;99.90;;;;;;5004383;28;20338;-51
2021/09/23 04:23:14;;;;;;;28.77;16.67;;;11.90;99.90;;;;;;4998692;28;20534;-51
2021/09/23 04:25:42;;;;;;;20.27;14.77;;;11.90;99.90;;;;;;5003215;28;20541;-51
2021/09/23 04:28:10;;;;;;;22.90;15.33;;;11.90;99.90;;;;;;5003672;28;20564;-51
2021/09/23 04:30:36;;;;;;;25.43;15.73;;;11.80;99.90;;;;;;5003832;28;20205;-51
2021/09/23 04:33:03;;;;;;;27.73;16.47;;;11.70;99.90;;;;;;5003603;28;20225;-51
2021/09/23 04:35:30;;;;;;;27.23;16.23;;;11.60;99.90;;;;;;4999379;28;20250;-51
2021/09/23 04:37:57;;;;;;;23.83;15.57;;;11.60;99.90;;;;;;5005231;28;20254;-51
2021/09/23 04:40:24;;;;;;;25.43;16.47;;;11.50;99.90;;;;;;5001620;28;20197;-51
2021/09/23 04:42:51;;;;;;;24.93;15.57;;;11.60;99.90;;;;;;5004771;28;20601;-51
2021/09/23 04:45:18;;;;;;;22.23;15.23;;;11.50;99.90;;;;;;5005746;28;20192;-51
2021/09/23 04:47:45;;;;;;;29.07;17.37;;;11.60;99.90;;;;;;5005309;28;20264;-51
2021/09/23 04:50:12;;;;;;;25.93;17.20;;;11.50;99.90;;;;;;5001042;28;20212;-51
2021/09/23 04:52:39;;;;;;;25.43;16.00;;;11.50;99.90;;;;;;5000663;28;20209;-51
2021/09/23 04:55:06;;;;;;;25.87;16.80;;;11.40;99.90;;;;;;4999256;28;20253;-51
2021/09/23 04:57:33;;;;;;;25.63;16.10;;;11.40;99.90;;;;;;5002760;28;20252;-52
2021/09/23 05:00:03;;;;;;;20.23;15.00;;;11.50;99.90;;;;;;5000951;28;21128;-51
2021/09/23 05:02:31;;;;;;;24.33;16.60;;;11.60;99.90;;;;;;5001884;28;20203;-51
2021/09/23 05:04:59;;;;;;;25.97;16.73;;;11.70;99.90;;;;;;5006333;28;20293;-50
2021/09/23 05:07:26;;;;;;;20.87;15.77;;;11.70;99.90;;;;;;5000961;28;20209;-51
2021/09/23 05:09:53;;;;;;;24.00;16.03;;;11.90;99.90;;;;;;5003335;28;20315;-52
2021/09/23 05:12:20;;;;;;;26.33;15.97;;;11.80;99.90;;;;;;5002382;28;20204;-51
2021/09/23 05:14:48;;;;;;;24.80;16.03;;;11.70;99.90;;;;;;5005656;28;20215;-49
2021/09/23 05:17:15;;;;;;;26.90;17.30;;;11.50;99.90;;;;;;5001510;28;20222;-50
2021/09/23 05:19:42;;;;;;;26.47;17.50;;;11.50;99.90;;;;;;5000648;28;20240;-52
2021/09/23 05:22:10;;;;;;;24.83;17.07;;;11.50;99.90;;;;;;5001183;28;20605;-49
2021/09/23 05:24:37;;;;;;;29.20;17.63;;;11.50;99.90;;;;;;5003958;28;20246;-50
2021/09/23 05:27:04;;;;;;;25.80;16.80;;;11.60;99.90;;;;;;5001371;28;20283;-50
2021/09/23 05:29:31;;;;;;;25.73;17.03;;;11.60;99.90;;;;;;5002495;28;20240;-50
2021/09/23 05:31:58;;;;;;;23.73;16.33;;;11.50;99.90;;;;;;5001025;28;20301;-50
2021/09/23 05:34:25;;;;;;;25.27;17.43;;;11.60;99.90;;;;;;5003511;28;20203;-49
2021/09/23 05:36:52;;;;;;;26.20;16.70;;;11.60;99.90;;;;;;5003951;28;20227;-50
2021/09/23 05:39:18;;;;;;;25.03;17.40;;;11.40;99.90;;;;;;5003101;28;20239;-50
2021/09/23 05:41:45;;;;;;;27.93;17.20;;;11.40;99.90;;;;;;5001793;28;20242;-49
2021/09/23 05:44:12;;;;;;;25.33;16.30;;;11.20;99.90;;;;;;5000431;28;20225;-50
2021/09/23 05:46:41;;;;;;;30.70;17.57;;;11.20;99.90;;;;;;4999740;28;20196;-50
2021/09/23 05:49:07;;;;;;;24.33;17.27;;;11.20;99.90;;;;;;5000099;28;20203;-50
2021/09/23 05:51:35;;;;;;;24.60;16.97;;;11.30;99.90;;;;;;5003783;28;20677;-50
2021/09/23 05:54:02;;;;;;;28.17;18.00;;;11.40;99.90;;;;;;4998650;28;20253;-50
2021/09/23 05:56:29;;;;;;;29.67;18.13;;;11.50;99.90;;;;;;4998114;28;20237;-50
2021/09/23 05:58:55;;;;;;;24.73;17.57;;;11.60;99.90;;;;;;5003949;28;20208;-50
2021/09/23 06:01:22;;;;;;;27.27;17.80;;;11.70;99.90;;;;;;5003214;28;20689;-50
2021/09/23 06:03:54;;;;;;;29.40;18.53;;;11.60;99.90;;;;;;5008531;28;20206;-50
2021/09/23 06:06:21;;;;;;;27.87;18.07;;;11.50;99.90;;;;;;4998357;28;20529;-50
2021/09/23 06:08:48;;;;;;;28.83;18.40;;;11.50;99.90;;;;;;4996910;28;20272;-50
2021/09/23 06:11:15;;;;;;;28.43;18.60;;;11.50;99.90;;;;;;5002728;28;20694;-50
2021/09/23 06:13:43;;;;;;;28.00;18.00;;;11.60;99.90;;;;;;5006289;28;20287;-50
2021/09/23 06:16:11;;;;;;;29.17;18.83;;;11.60;99.90;;;;;;5005791;28;20207;-50
2021/09/23 06:18:38;;;;;;;30.80;18.77;;;11.80;99.90;;;;;;4997622;28;20311;-50
2021/09/23 06:21:05;;;;;;;29.13;19.40;;;11.90;99.90;;;;;;4994358;28;20334;-49
2021/09/23 06:23:32;;;;;;;26.07;18.33;;;12.00;99.90;;;;;;4998913;28;20286;-50
2021/09/23 06:25:59;;;;;;;31.03;19.07;;;12.20;99.90;;;;;;4990971;28;20268;-50
2021/09/23 06:28:26;;;;;;;32.53;18.40;;;12.10;99.90;;;;;;4990221;28;20210;-50
2021/09/23 06:30:53;;;;;;;30.53;19.97;;;12.20;99.90;;;;;;4976973;28;20637;-50
2021/09/23 06:33:20;;;;;;;31.03;19.50;;;12.30;99.90;;;;;;4989384;28;20765;-50
2021/09/23 06:35:46;;;;;;;27.13;19.27;;;12.30;99.90;;;;;;4995669;28;20229;-50
2021/09/23 06:38:13;;;;;;;28.80;18.77;;;12.30;99.90;;;;;;4991507;28;20262;-50
2021/09/23 06:40:40;;;;;;;28.07;20.10;;;12.30;99.90;;;;;;4989202;28;20266;-50
2021/09/23 06:43:07;;;;;;;31.53;19.60;;;12.20;99.90;;;;;;4990563;28;20585;-51
2021/09/23 06:45:34;;;;;;;32.20;18.70;;;12.30;99.90;;;;;;5000395;28;20715;-50
2021/09/23 06:48:01;;;;;;;30.77;19.97;;;12.40;99.90;;;;;;4989734;28;20234;-50
2021/09/23 06:50:28;;;;;;;33.10;20.77;;;12.40;99.90;;;;;;4992331;28;20289;-50
2021/09/23 06:52:55;;;;;;;34.70;21.83;;;12.40;99.90;;;;;;4989050;28;20809;-50
2021/09/23 06:55:23;;;;;;;31.23;21.03;;;12.50;99.90;;;;;;4985774;28;20660;-52
2021/09/23 06:57:50;;;;;;;32.30;20.30;;;12.60;99.90;;;;;;4992068;28;20271;-50
2021/09/23 07:00:17;;;;;;;33.57;19.63;;;12.70;99.90;;;;;;5003527;28;20616;-50
2021/09/23 07:02:45;;;;;;;26.90;19.97;;;12.70;99.90;;;;;;5002772;28;20340;-50
2021/09/23 07:05:12;;;;;;;33.20;20.53;;;12.70;99.90;;;;;;5020267;28;20211;-52
2021/09/23 07:07:39;;;;;;;35.33;22.03;;;12.80;99.90;;;;;;4996566;28;20668;-50
2021/09/23 07:10:07;;;;;;;32.73;21.07;;;12.90;99.90;;;;;;4998080;28;20264;-50
2021/09/23 07:12:33;;;;;;;34.37;20.93;;;13.00;99.90;;;;;;4996764;28;20298;-50
2021/09/23 07:15:00;;;;;;;32.07;21.10;;;13.10;99.90;;;;;;4994519;28;20663;-50
2021/09/23 07:17:27;;;;;;;35.43;22.17;;;13.20;99.90;;;;;;5000735;28;20240;-52
2021/09/23 07:19:58;;;;;;;33.10;22.40;;;13.30;99.90;;;;;;5001535;28;20650;-50
2021/09/23 07:22:25;;;;;;;36.17;22.70;;;13.40;99.90;;;;;;4997005;28;20619;-50
2021/09/23 07:24:52;;;;;;;37.63;23.60;;;13.50;99.90;;;;;;4994332;28;20699;-50
2021/09/23 07:27:19;;;;;;;34.73;22.17;;;13.50;99.90;;;;;;4998574;28;20206;-52
2021/09/23 07:29:45;;;;;;;36.30;22.30;;;13.60;99.90;;;;;;5004914;28;20220;-50
2021/09/23 07:32:13;;;;;;;34.70;22.73;;;13.70;99.90;;;;;;4999343;28;20322;-49
2021/09/23 07:34:39;;;;;;;36.00;22.67;;;14.00;99.90;;;;;;4994253;28;20271;-50
2021/09/23 07:37:06;;;;;;;33.17;21.87;;;14.00;99.90;;;;;;5003975;28;20244;-50
2021/09/23 07:39:33;;;;;;;36.97;22.67;;;14.10;99.90;;;;;;4995793;28;20694;-50
2021/09/23 07:42:01;;;;;;;34.37;22.70;;;14.30;99.90;;;;;;4994471;28;20245;-50
2021/09/23 07:44:29;;;;;;;37.70;23.00;;;14.40;99.90;;;;;;5000206;28;20251;-50
2021/09/23 07:46:59;;;;;;;33.30;21.30;;;14.50;99.90;;;;;;4997512;28;20607;-50
2021/09/23 07:49:27;;;;;;;37.50;23.53;;;14.60;99.90;;;;;;4998506;28;20214;-50
2021/09/23 07:51:54;;;;;;;31.30;22.37;;;14.70;99.90;;;;;;4995351;28;20204;-50
2021/09/23 07:54:20;;;;;;;33.30;22.37;;;14.80;99.90;;;;;;5003333;28;20682;-50
2021/09/23 07:56:48;;;;;;;34.57;22.87;;;15.00;99.90;;;;;;4989343;28;20529;-50
2021/09/23 07:59:14;;;;;;;35.50;22.43;;;15.10;99.90;;;;;;4989186;28;20225;-50
2021/09/23 08:01:41;;;;;;;29.87;21.93;;;15.20;99.90;;;;;;4999843;28;20203;-50
2021/09/23 08:04:09;;;;;;;37.13;22.77;;;15.20;99.90;;;;;;4993719;28;20630;-50
2021/09/23 08:06:36;;;;;;;31.47;20.63;;;15.40;99.90;;;;;;4988392;28;20583;-53
2021/09/23 08:09:03;;;;;;;32.50;20.90;;;15.60;99.90;;;;;;4990220;28;20264;-50
2021/09/23 08:11:30;;;;;;;31.83;21.03;;;15.60;99.90;;;;;;4994578;28;20435;-50
2021/09/23 08:13:58;;;;;;;33.40;20.23;;;15.80;99.90;;;;;;4991942;28;20315;-50
2021/09/23 08:16:24;;;;;;;32.03;21.10;;;15.90;99.90;;;;;;4989638;28;20239;-50
2021/09/23 08:18:51;;;;;;;29.97;20.27;;;15.80;99.90;;;;;;5001133;28;20307;-49
2021/09/23 08:21:18;;;;;;;32.00;20.87;;;15.80;99.90;;;;;;5002549;28;20644;-50
2021/09/23 08:23:45;;;;;;;31.13;20.37;;;15.80;99.90;;;;;;4998530;28;20659;-50
2021/09/23 08:26:23;;;;;;;29.30;19.60;;;15.80;99.90;;;;;;5001432;28;20572;-50
2021/09/23 08:28:53;;;;;;;29.10;18.80;;;15.80;99.90;;;;;;5000685;28;20593;-50
2021/09/23 08:31:21;;;;;;;27.00;18.37;;;15.90;99.90;;;;;;4998966;28;20231;-50
2021/09/23 08:33:49;;;;;;;31.23;19.10;;;15.80;99.90;;;;;;5001367;28;20661;-50
2021/09/23 08:36:16;;;;;;;27.50;17.30;;;16.00;99.90;;;;;;4993369;28;20543;-50
2021/09/23 08:38:45;;;;;;;24.37;16.50;;;16.00;99.90;;;;;;5002779;28;20214;-50
2021/09/23 08:41:13;;;;;;;25.93;17.27;;;16.20;99.90;;;;;;4995750;28;20292;-51
2021/09/23 08:43:40;;;;;;;22.80;16.43;;;16.40;99.90;;;;;;4996113;28;20282;-50
2021/09/23 08:46:07;;;;;;;23.67;16.53;;;16.50;99.90;;;;;;4995300;28;20873;-51
2021/09/23 08:48:35;;;;;;;24.90;16.10;;;16.70;99.90;;;;;;4993945;28;20586;-51
2021/09/23 08:51:03;;;;;;;25.63;17.17;;;16.70;99.90;;;;;;4999916;28;20273;-51
2021/09/23 08:53:31;;;;;;;23.43;16.53;;;16.70;99.90;;;;;;5004637;28;20285;-51
2021/09/23 08:55:58;;;;;;;28.47;17.17;;;16.90;99.90;;;;;;4995557;28;20277;-51
2021/09/23 08:58:26;;;;;;;28.10;18.17;;;17.10;99.90;;;;;;4995206;28;20247;-51
2021/09/23 09:01:06;;;;;;;25.07;16.23;;;17.20;99.90;;;;;;4999360;28;20204;-50
2021/09/23 09:03:36;;;;;;;26.60;17.40;;;17.20;99.90;;;;;;4997893;28;20215;-51
2021/09/23 09:06:06;;;;;;;21.97;16.43;;;17.20;99.90;;;;;;5005366;28;20340;-51
2021/09/23 09:08:35;;;;;;;21.47;15.27;;;17.20;48.20;;;;;;4998894;28;20244;-51
2021/09/23 09:11:04;;;;;;;21.23;14.57;;;17.20;99.90;;;;;;4997499;28;20204;-51
2021/09/23 09:13:37;;;;;;;18.67;14.37;;;17.20;72.10;;;;;;4997806;28;20290;-50
2021/09/23 09:16:17;;;;;;;20.57;15.00;;;17.20;1.00;;;;;;5000108;28;20274;-50
2021/09/23 09:18:47;;;;;;;21.83;14.97;;;17.40;98.00;;;;;;5000965;28;20235;-51
2021/09/23 09:21:17;;;;;;;20.37;14.10;;;17.50;1.00;;;;;;5003781;28;20240;-51
2021/09/23 09:23:50;;;;;;;17.47;13.30;;;17.50;1.00;;;;;;5004727;28;20329;-51
2021/09/23 09:26:43;;;;;;;20.93;13.10;;;17.70;1.00;;;;;;5006060;28;20260;-51
2021/09/23 09:29:13;;;;;;;16.50;12.80;;;17.80;1.00;;;;;;5004843;28;20204;-51
2021/09/23 09:31:48;;;;;;;20.50;13.87;;;17.70;1.00;;;;;;5001651;28;20273;-51
2021/09/23 09:34:19;;;;;;;18.83;12.60;;;17.70;1.00;;;;;;4998207;28;20278;-50
2021/09/23 09:36:49;;;;;;;16.60;12.27;;;17.60;1.00;;;;;;5002454;28;20203;-51
2021/09/23 09:39:21;;;;;;;15.87;12.60;;;17.50;1.00;;;;;;5003000;28;20305;-50
2021/09/23 09:41:51;;;;;;;20.33;14.03;;;17.60;99.90;;;;;;5000898;28;20203;-51
2021/09/23 09:44:19;;;;;;;19.37;12.93;;;17.50;1.00;;;;;;5007045;28;20658;-51
2021/09/23 09:46:53;;;;;;;17.60;12.30;;;17.40;1.00;;;;;;5001427;28;20267;-51
2021/09/23 09:49:22;;;;;;;21.73;12.00;;;17.50;1.00;;;;;;5004408;28;20208;-51
2021/09/23 09:51:52;;;;;;;18.80;13.20;;;17.50;1.00;;;;;;5006001;28;20605;-51
2021/09/23 09:54:20;;;;;;;13.87;11.07;;;17.50;1.00;;;;;;4995674;28;20628;-51
2021/09/23 09:56:56;;;;;;;12.40;10.27;;;17.50;99.90;;;;;;4999942;28;20315;-50
2021/09/23 09:59:23;;;;;;;14.43;9.20;;;17.60;99.90;;;;;;4996480;28;20218;-51
2021/09/23 10:01:53;;;;;;;14.37;9.07;;;17.70;99.90;;;;;;4997736;28;20194;-51
2021/09/23 10:04:21;;;;;;;12.60;9.33;;;17.70;1.00;;;;;;4997978;28;20631;-51
2021/09/23 10:06:49;;;;;;;10.70;8.40;;;17.70;99.90;;;;;;4996532;28;20278;-51
2021/09/23 10:09:16;;;;;;;11.20;8.47;;;17.60;99.90;;;;;;5000302;28;20315;-51
2021/09/23 10:11:47;;;;;;;13.23;9.43;;;17.60;1.00;;;;;;4994772;28;20205;-51
2021/09/23 10:14:16;;;;;;;11.77;8.03;;;17.60;99.90;;;;;;5009591;28;20211;-51
2021/09/23 10:16:44;;;;;;;9.73;8.07;;;17.60;1.00;;;;;;5001367;28;20208;-51
2021/09/23 10:19:14;;;;;;;11.37;8.97;;;17.60;1.00;;;;;;4992545;28;20247;-51
2021/09/23 10:21:41;;;;;;;10.27;8.40;;;17.60;1.00;;;;;;5000960;28;20654;-51
2021/09/23 10:24:10;;;;;;;11.43;8.93;;;17.60;99.90;;;;;;4996274;28;20274;-51
2021/09/23 10:26:40;;;;;;;13.00;8.77;;;17.70;99.90;;;;;;5002446;28;20207;-51
2021/09/23 10:29:10;;;;;;;11.00;8.33;;;17.70;1.00;;;;;;4995506;28;20241;-51
2021/09/23 10:31:38;;;;;;;10.93;8.50;;;17.70;77.90;;;;;;5005948;28;20295;-51
2021/09/23 10:34:09;;;;;;;10.47;7.60;;;17.90;1.00;;;;;;5005925;28;20200;-51
2021/09/23 10:36:38;;;;;;;12.53;7.80;;;17.90;1.00;;;;;;5003073;28;20218;-51
2021/09/23 10:39:07;;;;;;;9.37;6.70;;;17.90;1.00;;;;;;5006042;28;20219;-51
2021/09/23 10:41:39;;;;;;;11.63;7.07;;;18.00;99.90;;;;;;4992513;28;21385;-51
2021/09/23 10:44:07;;;;;;;9.13;6.83;;;18.00;99.90;;;;;;4992026;28;20205;-51
2021/09/23 10:46:35;;;;;;;8.83;6.40;;;18.00;99.90;;;;;;5007293;28;20256;-51
2021/09/23 10:49:04;;;;;;;10.27;7.43;;;17.80;1.00;;;;;;5003622;28;20198;-50
2021/09/23 10:51:33;;;;;;;11.20;6.90;;;17.80;1.00;;;;;;4995948;28;20517;-50
2021/09/23 10:54:00;;;;;;;8.67;6.10;;;17.80;1.00;;;;;;4998030;28;20294;-50
2021/09/23 10:56:28;;;;;;;8.77;6.30;;;17.90;1.00;;;;;;5002057;28;20201;-50
2021/09/23 10:58:57;;;;;;;13.00;6.00;;;17.90;99.90;;;;;;4995716;28;20212;-50
2021/09/23 11:01:29;;;;;;;8.83;5.77;;;17.90;1.00;;;;;;5005262;28;20201;-52
2021/09/23 11:03:59;;;;;;;7.50;5.43;;;18.00;99.90;;;;;;4997612;28;20228;-52
2021/09/23 11:06:34;;;;;;;6.20;4.60;;;18.10;99.90;;;;;;5002464;28;20200;-50
2021/09/23 11:09:18;;;;;;;7.43;4.40;;;18.00;16.60;;;;;;5002019;28;20659;-50
2021/09/23 11:11:52;;;;;;;8.90;5.83;;;18.00;1.00;;;;;;5006891;28;20291;-50
2021/09/23 11:14:20;;;;;;;7.90;5.23;;;18.00;1.00;;;;;;5004752;28;20271;-52
2021/09/23 11:16:50;;;;;;;8.30;4.87;;;17.90;99.90;;;;;;5000684;28;20606;-50
2021/09/23 11:19:19;;;;;;;9.43;5.10;;;18.00;51.40;;;;;;5001269;28;20287;-51
2021/09/23 11:21:47;;;;;;;6.70;4.23;;;18.00;99.90;;;;;;5004394;28;20205;-51
2021/09/23 11:24:15;;;;;;;10.23;5.17;;;18.10;99.90;;;;;;4996338;28;20717;-50
2021/09/23 11:26:43;;;;;;;6.10;3.87;;;18.20;11.60;;;;;;4999179;28;20201;-50
2021/09/23 11:29:12;;;;;;;7.23;3.90;;;18.10;1.00;;;;;;5002852;28;20268;-51
2021/09/23 11:32:05;;;;;;;8.73;4.17;;;18.10;1.00;;;;;;4995901;28;20229;-51
2021/09/23 11:34:39;;;;;;;5.57;3.43;;;18.00;1.00;;;;;;4998109;28;20250;-50
2021/09/23 11:37:08;;;;;;;5.47;3.40;;;17.90;70.50;;;;;;5000521;28;20232;-50
2021/09/23 11:39:35;;;;;;;5.00;3.40;;;17.90;99.90;;;;;;5003043;28;20220;-53
2021/09/23 11:42:15;;;;;;;6.73;3.30;;;18.00;1.00;;;;;;4993900;28;20960;-51
2021/09/23 11:44:42;;;;;;;4.80;3.40;;;18.10;99.90;;;;;;4998217;28;20250;-51
2021/09/23 11:47:22;;;;;;;4.27;3.00;;;18.00;1.00;;;;;;4995300;28;20605;-51
2021/09/23 11:49:53;;;;;;;5.83;4.17;;;18.20;99.90;;;;;;5010691;28;20212;-53
2021/09/23 11:52:32;;;;;;;6.83;4.03;;;18.30;19.10;;;;;;4999139;28;20201;-50
2021/09/23 11:55:00;;;;;;;12.37;3.00;;;18.80;1.00;;;;;;4994577;28;20205;-51
2021/09/23 11:57:29;;;;;;;9.10;3.33;;;19.20;99.90;;;;;;4992958;28;20212;-51
2021/09/23 11:59:58;;;;;;;3.77;3.00;;;19.20;1.00;;;;;;4994301;28;20229;-50
2021/09/23 12:02:26;;;;;;;5.73;3.47;;;19.30;1.00;;;;;;4999844;28;20197;-51
2021/09/23 12:04:54;;;;;;;5.23;3.27;;;19.40;1.00;;;;;;4997106;28;20748;-51
2021/09/23 12:07:22;;;;;;;7.73;3.27;;;19.90;1.00;;;;;;4996633;28;20249;-51
2021/09/23 12:10:08;;;;;;;8.73;3.20;;;20.00;1.00;;;;;;4994218;28;20205;-50
2021/09/23 12:12:34;;;;;;;6.80;3.37;;;20.20;1.00;;;;;;4992770;28;20590;-50
2021/09/23 12:15:02;;;;;;;6.87;3.17;;;20.60;1.00;;;;;;4993503;28;20213;-50
2021/09/23 12:17:28;;;;;;;4.60;3.17;;;20.80;99.90;;;;;;4992549;28;20209;-50
2021/09/23 12:19:57;;;;;;;5.03;3.63;;;20.90;1.00;;;;;;4999223;28;20327;-53
2021/09/23 12:22:33;;;;;;;5.33;3.37;;;20.80;1.00;;;;;;4997920;28;20201;-51
2021/09/23 12:25:00;;;;;;;5.07;3.40;;;20.70;1.00;;;;;;4991668;28;20196;-51
2021/09/23 12:27:28;;;;;;;5.67;3.03;;;21.10;1.00;;;;;;5002125;28;20606;-51
2021/09/23 12:29:56;;;;;;;4.50;2.93;;;21.00;1.00;;;;;;4996112;28;20213;-51
2021/09/23 12:32:35;;;;;;;7.37;2.60;;;20.60;1.00;;;;;;4994630;28;20222;-51
2021/09/23 12:35:19;;;;;;;7.10;2.80;;;20.40;1.00;;;;;;5001813;28;20593;-51
2021/09/23 12:37:48;;;;;;;5.40;3.03;;;20.50;21.30;;;;;;4997486;28;20205;-50
2021/09/23 12:40:19;;;;;;;5.10;2.80;;;20.60;99.90;;;;;;4991379;28;20214;-51